sensor_id;sensor_type;location;lat;lon;timestamp;temperature;humidity
5492;DHT22;2768;53.540;10.224;2023-07-13T00:00:23;18.50;99.90
5492;DHT22;2768;53.540;10.224;2023-07-13T00:06:17;18.50;99.90
5492;DHT22;2768;53.540;10.224;2023-07-13T00:12:24;18.50;99.90
5492;DHT22;2768;53.540;10.224;2023-07-13T00:18:18;18.40;99.90
5492;DHT22;2768;53.540;10.224;2023-07-13T00:24:17;18.40;99.90
5492;DHT22;2768;53.540;10.224;2023-07-13T00:30:18;18.30;99.90
5492;DHT22;2768;53.540;10.224;2023-07-13T00:36:11;18.50;99.90
5492;DHT22;2768;53.540;10.224;2023-07-13T00:42:05;18.50;99.90
5492;DHT22;2768;53.540;10.224;2023-07-13T00:48:01;18.40;99.90
5492;DHT22;2768;53.540;10.224;2023-07-13T00:53:56;18.10;99.90
5492;DHT22;2768;53.540;10.224;2023-07-13T00:59:57;18.20;99.90
5492;DHT22;2768;53.540;10.224;2023-07-13T01:05:53;18.30;99.90
5492;DHT22;2768;53.540;10.224;2023-07-13T01:11:47;18.20;99.90
5492;DHT22;2768;53.540;10.224;2023-07-13T01:17:41;18.30;99.90
5492;DHT22;2768;53.540;10.224;2023-07-13T01:23:37;18.20;99.90
5492;DHT22;2768;53.540;10.224;2023-07-13T01:29:30;17.90;99.90
5492;DHT22;2768;53.540;10.224;2023-07-13T01:35:24;18.00;99.90
5492;DHT22;2768;53.540;10.224;2023-07-13T01:41:20;17.90;99.90
5492;DHT22;2768;53.540;10.224;2023-07-13T01:47:14;17.90;99.90
5492;DHT22;2768;53.540;10.224;2023-07-13T01:53:08;17.90;99.90
5492;DHT22;2768;53.540;10.224;2023-07-13T01:59:03;17.80;99.90
5492;DHT22;2768;53.540;10.224;2023-07-13T02:04:56;17.90;99.90
5492;DHT22;2768;53.540;10.224;2023-07-13T02:10:50;17.70;99.90
5492;DHT22;2768;53.540;10.224;2023-07-13T02:16:45;17.40;99.90
5492;DHT22;2768;53.540;10.224;2023-07-13T02:22:38;17.50;99.90
5492;DHT22;2768;53.540;10.224;2023-07-13T02:28:32;17.50;1.00
5492;DHT22;2768;53.540;10.224;2023-07-13T02:34:27;17.60;99.90
5492;DHT22;2768;53.540;10.224;2023-07-13T02:40:24;17.50;99.90
5492;DHT22;2768;53.540;10.224;2023-07-13T02:46:17;17.50;99.90
5492;DHT22;2768;53.540;10.224;2023-07-13T02:52:13;17.30;99.90
5492;DHT22;2768;53.540;10.224;2023-07-13T02:58:06;17.50;1.00
5492;DHT22;2768;53.540;10.224;2023-07-13T03:04:00;17.50;99.90
5492;DHT22;2768;53.540;10.224;2023-07-13T03:09:58;17.50;99.90
5492;DHT22;2768;53.540;10.224;2023-07-13T03:16:02;17.40;99.90
5492;DHT22;2768;53.540;10.224;2023-07-13T03:21:56;17.30;99.90
5492;DHT22;2768;53.540;10.224;2023-07-13T03:27:51;17.00;99.90
5492;DHT22;2768;53.540;10.224;2023-07-13T03:33:46;17.20;99.90
5492;DHT22;2768;53.540;10.224;2023-07-13T03:39:41;17.20;99.90
5492;DHT22;2768;53.540;10.224;2023-07-13T03:45:39;17.10;99.90
5492;DHT22;2768;53.540;10.224;2023-07-13T03:51:32;17.10;99.90
5492;DHT22;2768;53.540;10.224;2023-07-13T03:57:26;17.10;99.90
5492;DHT22;2768;53.540;10.224;2023-07-13T04:03:22;17.00;99.90
5492;DHT22;2768;53.540;10.224;2023-07-13T04:09:17;16.80;99.90
5492;DHT22;2768;53.540;10.224;2023-07-13T04:15:10;16.70;99.90
5492;DHT22;2768;53.540;10.224;2023-07-13T04:21:05;16.70;99.90
5492;DHT22;2768;53.540;10.224;2023-07-13T04:26:58;16.60;1.00
5492;DHT22;2768;53.540;10.224;2023-07-13T04:32:53;16.70;1.00
5492;DHT22;2768;53.540;10.224;2023-07-13T04:38:50;16.70;1.00
5492;DHT22;2768;53.540;10.224;2023-07-13T04:44:47;16.80;1.00
5492;DHT22;2768;53.540;10.224;2023-07-13T04:50:41;16.80;1.00
5492;DHT22;2768;53.540;10.224;2023-07-13T04:56:37;16.80;1.00
5492;DHT22;2768;53.540;10.224;2023-07-13T05:02:30;16.80;99.90
5492;DHT22;2768;53.540;10.224;2023-07-13T05:08:24;16.90;1.00
5492;DHT22;2768;53.540;10.224;2023-07-13T05:57:37;17.40;1.00
5492;DHT22;2768;53.540;10.224;2023-07-13T06:03:31;17.40;99.90
5492;DHT22;2768;53.540;10.224;2023-07-13T06:09:24;17.40;99.90
5492;DHT22;2768;53.540;10.224;2023-07-13T06:15:19;17.50;99.90
5492;DHT22;2768;53.540;10.224;2023-07-13T06:21:14;17.50;99.90
5492;DHT22;2768;53.540;10.224;2023-07-13T06:27:08;17.60;99.90
5492;DHT22;2768;53.540;10.224;2023-07-13T06:33:03;17.70;99.90
5492;DHT22;2768;53.540;10.224;2023-07-13T06:38:56;17.80;99.90
5492;DHT22;2768;53.540;10.224;2023-07-13T06:44:49;17.80;99.90
5492;DHT22;2768;53.540;10.224;2023-07-13T06:50:45;17.80;99.90
5492;DHT22;2768;53.540;10.224;2023-07-13T06:56:38;17.80;99.90
5492;DHT22;2768;53.540;10.224;2023-07-13T07:02:31;17.80;99.90
5492;DHT22;2768;53.540;10.224;2023-07-13T07:08:26;17.80;99.90
5492;DHT22;2768;53.540;10.224;2023-07-13T07:14:19;17.90;99.90
5492;DHT22;2768;53.540;10.224;2023-07-13T07:20:13;17.90;99.90
5492;DHT22;2768;53.540;10.224;2023-07-13T07:26:07;17.80;99.90
5492;DHT22;2768;53.540;10.224;2023-07-13T07:32:02;18.00;99.90
5492;DHT22;2768;53.540;10.224;2023-07-13T07:38:16;17.90;99.90
5492;DHT22;2768;53.540;10.224;2023-07-13T07:44:11;17.90;99.90
5492;DHT22;2768;53.540;10.224;2023-07-13T07:50:05;18.00;99.90
5492;DHT22;2768;53.540;10.224;2023-07-13T07:55:58;18.30;99.90
5492;DHT22;2768;53.540;10.224;2023-07-13T08:02:13;18.30;99.90
5492;DHT22;2768;53.540;10.224;2023-07-13T08:08:27;18.30;99.90
5492;DHT22;2768;53.540;10.224;2023-07-13T08:14:21;18.40;99.90
5492;DHT22;2768;53.540;10.224;2023-07-13T08:20:16;18.50;99.90
5492;DHT22;2768;53.540;10.224;2023-07-13T08:26:09;18.60;99.90
5492;DHT22;2768;53.540;10.224;2023-07-13T08:32:04;18.60;99.90
5492;DHT22;2768;53.540;10.224;2023-07-13T08:37:59;18.70;99.90
5492;DHT22;2768;53.540;10.224;2023-07-13T08:43:57;18.90;99.90
5492;DHT22;2768;53.540;10.224;2023-07-13T08:49:52;19.10;99.90
5492;DHT22;2768;53.540;10.224;2023-07-13T08:55:56;19.10;99.90
5492;DHT22;2768;53.540;10.224;2023-07-13T09:02:15;19.20;99.90
5492;DHT22;2768;53.540;10.224;2023-07-13T09:08:33;19.20;99.90
5492;DHT22;2768;53.540;10.224;2023-07-13T09:14:42;19.50;99.90
5492;DHT22;2768;53.540;10.224;2023-07-13T09:20:39;19.50;99.90
5492;DHT22;2768;53.540;10.224;2023-07-13T09:26:35;19.70;99.90
5492;DHT22;2768;53.540;10.224;2023-07-13T09:32:31;19.70;99.90
5492;DHT22;2768;53.540;10.224;2023-07-13T09:38:28;19.40;99.90
5492;DHT22;2768;53.540;10.224;2023-07-13T09:44:28;19.30;99.90
5492;DHT22;2768;53.540;10.224;2023-07-13T09:50:24;19.30;99.90
5492;DHT22;2768;53.540;10.224;2023-07-13T09:56:23;19.60;99.90
5492;DHT22;2768;53.540;10.224;2023-07-13T10:02:23;19.90;99.90
5492;DHT22;2768;53.540;10.224;2023-07-13T10:08:23;20.20;99.90
5492;DHT22;2768;53.540;10.224;2023-07-13T10:14:18;20.40;99.90
5492;DHT22;2768;53.540;10.224;2023-07-13T10:20:16;20.30;99.90
5492;DHT22;2768;53.540;10.224;2023-07-13T10:26:15;20.50;99.90
5492;DHT22;2768;53.540;10.224;2023-07-13T10:32:11;20.50;99.90
5492;DHT22;2768;53.540;10.224;2023-07-13T10:38:07;20.40;99.90
5492;DHT22;2768;53.540;10.224;2023-07-13T10:44:09;20.60;99.90
5492;DHT22;2768;53.540;10.224;2023-07-13T10:50:07;20.70;99.90
5492;DHT22;2768;53.540;10.224;2023-07-13T10:56:02;21.00;99.90
5492;DHT22;2768;53.540;10.224;2023-07-13T11:02:10;21.10;99.90
5492;DHT22;2768;53.540;10.224;2023-07-13T11:08:16;21.30;99.90
5492;DHT22;2768;53.540;10.224;2023-07-13T11:14:31;21.50;76.10
5492;DHT22;2768;53.540;10.224;2023-07-13T11:20:37;21.20;68.90
5492;DHT22;2768;53.540;10.224;2023-07-13T11:26:41;21.00;58.70
5492;DHT22;2768;53.540;10.224;2023-07-13T11:32:35;21.30;68.90
5492;DHT22;2768;53.540;10.224;2023-07-13T11:38:35;21.50;54.80
5492;DHT22;2768;53.540;10.224;2023-07-13T11:44:30;21.90;33.70
5492;DHT22;2768;53.540;10.224;2023-07-13T11:50:24;21.60;6.90
5492;DHT22;2768;53.540;10.224;2023-07-13T11:56:19;21.40;15.00
5492;DHT22;2768;53.540;10.224;2023-07-13T12:02:17;21.40;18.10
5492;DHT22;2768;53.540;10.224;2023-07-13T12:08:11;21.70;8.20
5492;DHT22;2768;53.540;10.224;2023-07-13T12:14:17;21.90;9.10
5492;DHT22;2768;53.540;10.224;2023-07-13T12:20:20;21.80;3.80
5492;DHT22;2768;53.540;10.224;2023-07-13T12:26:13;21.80;1.00
5492;DHT22;2768;53.540;10.224;2023-07-13T12:32:14;21.70;1.00
5492;DHT22;2768;53.540;10.224;2023-07-13T12:38:11;21.50;1.00
5492;DHT22;2768;53.540;10.224;2023-07-13T12:44:07;19.60;99.90
5492;DHT22;2768;53.540;10.224;2023-07-13T12:50:04;17.90;99.90
5492;DHT22;2768;53.540;10.224;2023-07-13T12:56:01;17.30;99.90
5492;DHT22;2768;53.540;10.224;2023-07-13T13:01:56;17.60;1.00
5492;DHT22;2768;53.540;10.224;2023-07-13T13:07:51;17.80;1.00
5492;DHT22;2768;53.540;10.224;2023-07-13T13:13:44;18.10;1.00
5492;DHT22;2768;53.540;10.224;2023-07-13T13:19:38;18.00;1.00
5492;DHT22;2768;53.540;10.224;2023-07-13T13:25:33;18.10;1.00
5492;DHT22;2768;53.540;10.224;2023-07-13T13:31:28;18.20;1.00
5492;DHT22;2768;53.540;10.224;2023-07-13T13:37:22;18.30;1.00
5492;DHT22;2768;53.540;10.224;2023-07-13T13:43:21;18.50;99.90
5492;DHT22;2768;53.540;10.224;2023-07-13T13:49:20;18.90;99.90
5492;DHT22;2768;53.540;10.224;2023-07-13T13:55:15;19.40;99.90
5492;DHT22;2768;53.540;10.224;2023-07-13T14:01:17;19.30;99.90
5492;DHT22;2768;53.540;10.224;2023-07-13T14:07:11;19.20;99.90
5492;DHT22;2768;53.540;10.224;2023-07-13T14:13:04;19.10;99.90
5492;DHT22;2768;53.540;10.224;2023-07-13T14:19:02;18.90;99.90
5492;DHT22;2768;53.540;10.224;2023-07-13T14:24:55;18.90;99.90
5492;DHT22;2768;53.540;10.224;2023-07-13T14:30:51;18.90;99.90
5492;DHT22;2768;53.540;10.224;2023-07-13T14:36:48;18.90;99.90
5492;DHT22;2768;53.540;10.224;2023-07-13T14:42:43;19.00;99.90
5492;DHT22;2768;53.540;10.224;2023-07-13T14:48:36;19.10;99.90
5492;DHT22;2768;53.540;10.224;2023-07-13T14:54:31;19.10;99.90
5492;DHT22;2768;53.540;10.224;2023-07-13T15:00:25;19.10;99.90
5492;DHT22;2768;53.540;10.224;2023-07-13T15:06:19;19.20;99.90
5492;DHT22;2768;53.540;10.224;2023-07-13T15:12:14;19.60;99.90
5492;DHT22;2768;53.540;10.224;2023-07-13T15:18:09;19.60;99.90
5492;DHT22;2768;53.540;10.224;2023-07-13T15:24:05;19.60;99.90
5492;DHT22;2768;53.540;10.224;2023-07-13T15:30:02;19.60;99.90
5492;DHT22;2768;53.540;10.224;2023-07-13T15:35:56;19.70;99.90
5492;DHT22;2768;53.540;10.224;2023-07-13T15:41:51;20.00;99.90
5492;DHT22;2768;53.540;10.224;2023-07-13T15:47:48;19.90;99.90
5492;DHT22;2768;53.540;10.224;2023-07-13T15:53:42;19.70;99.90
5492;DHT22;2768;53.540;10.224;2023-07-13T15:59:35;19.70;99.90
5492;DHT22;2768;53.540;10.224;2023-07-13T16:05:30;19.60;99.90
5492;DHT22;2768;53.540;10.224;2023-07-13T16:11:26;19.60;99.90
5492;DHT22;2768;53.540;10.224;2023-07-13T16:17:20;19.50;99.90
5492;DHT22;2768;53.540;10.224;2023-07-13T16:23:16;19.60;99.90
5492;DHT22;2768;53.540;10.224;2023-07-13T16:29:12;19.70;99.90
5492;DHT22;2768;53.540;10.224;2023-07-13T16:35:07;19.80;99.90
5492;DHT22;2768;53.540;10.224;2023-07-13T16:41:02;19.80;99.90
5492;DHT22;2768;53.540;10.224;2023-07-13T16:46:57;19.80;99.90
5492;DHT22;2768;53.540;10.224;2023-07-13T16:52:53;20.00;99.90
5492;DHT22;2768;53.540;10.224;2023-07-13T16:58:48;20.10;99.90
5492;DHT22;2768;53.540;10.224;2023-07-13T17:04:41;20.00;99.90
5492;DHT22;2768;53.540;10.224;2023-07-13T17:10:35;19.90;99.90
5492;DHT22;2768;53.540;10.224;2023-07-13T17:16:30;19.60;99.90
5492;DHT22;2768;53.540;10.224;2023-07-13T17:22:23;19.40;99.90
5492;DHT22;2768;53.540;10.224;2023-07-13T17:28:22;19.40;99.90
5492;DHT22;2768;53.540;10.224;2023-07-13T17:34:17;19.30;99.90
5492;DHT22;2768;53.540;10.224;2023-07-13T17:40:14;19.30;99.90
5492;DHT22;2768;53.540;10.224;2023-07-13T17:46:12;19.30;99.90
5492;DHT22;2768;53.540;10.224;2023-07-13T17:52:08;19.30;99.90
5492;DHT22;2768;53.540;10.224;2023-07-13T17:58:02;19.30;99.90
5492;DHT22;2768;53.540;10.224;2023-07-13T18:03:55;19.30;99.90
5492;DHT22;2768;53.540;10.224;2023-07-13T18:09:54;19.20;99.90
5492;DHT22;2768;53.540;10.224;2023-07-13T18:15:48;19.20;99.90
5492;DHT22;2768;53.540;10.224;2023-07-13T18:21:44;19.00;99.90
5492;DHT22;2768;53.540;10.224;2023-07-13T18:27:38;19.00;99.90
5492;DHT22;2768;53.540;10.224;2023-07-13T18:33:33;19.00;99.90
5492;DHT22;2768;53.540;10.224;2023-07-13T18:39:26;18.90;99.90
5492;DHT22;2768;53.540;10.224;2023-07-13T18:45:21;18.80;99.90
5492;DHT22;2768;53.540;10.224;2023-07-13T18:51:15;18.90;99.90
5492;DHT22;2768;53.540;10.224;2023-07-13T18:57:09;18.90;99.90
5492;DHT22;2768;53.540;10.224;2023-07-13T19:03:04;18.90;99.90
5492;DHT22;2768;53.540;10.224;2023-07-13T19:08:58;18.80;99.90
5492;DHT22;2768;53.540;10.224;2023-07-13T19:14:51;18.80;99.90
5492;DHT22;2768;53.540;10.224;2023-07-13T19:20:50;18.70;99.90
5492;DHT22;2768;53.540;10.224;2023-07-13T19:26:45;18.60;99.90
5492;DHT22;2768;53.540;10.224;2023-07-13T19:32:44;18.50;99.90
5492;DHT22;2768;53.540;10.224;2023-07-13T19:38:39;18.40;99.90
5492;DHT22;2768;53.540;10.224;2023-07-13T19:44:33;18.30;99.90
5492;DHT22;2768;53.540;10.224;2023-07-13T19:50:28;18.10;99.90
5492;DHT22;2768;53.540;10.224;2023-07-13T19:56:23;18.00;99.90
5492;DHT22;2768;53.540;10.224;2023-07-13T20:02:17;17.80;99.90
5492;DHT22;2768;53.540;10.224;2023-07-13T20:08:19;17.90;99.90
5492;DHT22;2768;53.540;10.224;2023-07-13T20:14:19;17.80;99.90
5492;DHT22;2768;53.540;10.224;2023-07-13T20:20:20;17.80;99.90
5492;DHT22;2768;53.540;10.224;2023-07-13T20:26:14;17.80;99.90
5492;DHT22;2768;53.540;10.224;2023-07-13T20:32:12;17.70;99.90
5492;DHT22;2768;53.540;10.224;2023-07-13T20:38:07;17.70;99.90
5492;DHT22;2768;53.540;10.224;2023-07-13T20:44:04;17.70;99.90
5492;DHT22;2768;53.540;10.224;2023-07-13T20:49:58;17.60;99.90
5492;DHT22;2768;53.540;10.224;2023-07-13T20:55:52;17.70;99.90
5492;DHT22;2768;53.540;10.224;2023-07-13T21:01:45;17.80;99.90
5492;DHT22;2768;53.540;10.224;2023-07-13T21:07:40;17.70;99.90
5492;DHT22;2768;53.540;10.224;2023-07-13T21:13:34;17.60;99.90
5492;DHT22;2768;53.540;10.224;2023-07-13T21:19:27;17.40;99.90
5492;DHT22;2768;53.540;10.224;2023-07-13T21:25:23;17.40;99.90
5492;DHT22;2768;53.540;10.224;2023-07-13T21:31:21;17.40;99.90
5492;DHT22;2768;53.540;10.224;2023-07-13T21:37:17;17.50;99.90
5492;DHT22;2768;53.540;10.224;2023-07-13T21:43:14;17.40;99.90
5492;DHT22;2768;53.540;10.224;2023-07-13T21:49:08;17.60;99.90
5492;DHT22;2768;53.540;10.224;2023-07-13T21:55:02;17.60;99.90
5492;DHT22;2768;53.540;10.224;2023-07-13T22:00:58;17.40;99.90
5492;DHT22;2768;53.540;10.224;2023-07-13T22:06:52;17.30;99.90
5492;DHT22;2768;53.540;10.224;2023-07-13T22:12:49;17.40;99.90
5492;DHT22;2768;53.540;10.224;2023-07-13T22:18:44;17.30;99.90
5492;DHT22;2768;53.540;10.224;2023-07-13T22:24:38;17.20;99.90
5492;DHT22;2768;53.540;10.224;2023-07-13T22:30:32;17.10;99.90
5492;DHT22;2768;53.540;10.224;2023-07-13T22:36:26;17.10;99.90
5492;DHT22;2768;53.540;10.224;2023-07-13T22:42:20;17.10;99.90
5492;DHT22;2768;53.540;10.224;2023-07-13T22:48:15;17.10;99.90
5492;DHT22;2768;53.540;10.224;2023-07-13T22:54:11;17.00;99.90
5492;DHT22;2768;53.540;10.224;2023-07-13T23:00:07;17.00;99.90
5492;DHT22;2768;53.540;10.224;2023-07-13T23:06:01;16.90;99.90
5492;DHT22;2768;53.540;10.224;2023-07-13T23:11:58;16.80;99.90
5492;DHT22;2768;53.540;10.224;2023-07-13T23:17:51;16.80;99.90
5492;DHT22;2768;53.540;10.224;2023-07-13T23:23:45;16.70;99.90
5492;DHT22;2768;53.540;10.224;2023-07-13T23:29:40;16.70;99.90
5492;DHT22;2768;53.540;10.224;2023-07-13T23:35:33;16.60;99.90
5492;DHT22;2768;53.540;10.224;2023-07-13T23:41:27;16.60;99.90
5492;DHT22;2768;53.540;10.224;2023-07-13T23:47:22;16.50;99.90
5492;DHT22;2768;53.540;10.224;2023-07-13T23:53:15;16.50;99.90
5492;DHT22;2768;53.540;10.224;2023-07-13T23:59:09;16.50;99.90
